Station: Act Pcs1

  Atmospheric Gas Attenuation - ITU Rec 676-11   --------------- db/100km ---------------
Date Time Temp RH % AH g/m3 Dew Point Wind Direction Speed kph Gust kph Barometer mB Rainfall Since 9am 24GHz 47GHz 76GHz 122GHz 134GHz 241GHz
22 12:50 18.4 61 9.59 10.7 6 7 1013.1 0 21.5 26.1 41.4 108.7 105.3 363.1
22 12:40 18.8 62 9.98 11.5 6 7 1013.1 0 22.3 26.6 42.7 112.2 109.7 378.8
22 12:20 18.4 59 9.28 10.2 7 9 1013.1 0 20.8 25.6 40.2 105.5 101.3 349.3
22 12:10 17.7 62 9.35 10.4 6 7 1013.1 0 21.0 26.0 40.8 107.1 103.1 355.5
22 11:50 17.1 68 9.9 11.3 6 7 1013.1 0 22.2 27.0 43.3 113.8 111.1 383.4
22 11:40 18.4 61 9.59 10.8 6 7 1013.1 0 21.5 26.1 41.4 108.7 105.3 363.1
22 11:20 17.5 67 9.99 11.3 7 7 1013.1 0 22.4 27.0 43.4 114.2 111.7 385.6
22 11:10 18.1 64 9.89 11.3 4 6 1013.1 0 22.1 26.7 42.7 112.3 109.6 378.1
22 11:00 17.2 68 9.96 11.4 6 6 1013.1 0 22.3 27.1 43.5 114.3 111.8 385.7
22 10:50 16.8 64 9.15 10 6 6 1013.1 0 20.6 25.9 40.5 106.3 101.7 350.5
22 10:30 15.9 74 10.02 11.3 4 6 1013.1 0 22.5 27.6 44.4 116.9 114.5 395.0
22 10:20 15.9 69 9.34 10.2 6 6 1013.1 0 21.1 26.5 41.7 109.5 105.4 363.2
22 10:10 15.3 73 9.53 10.5 7 7 1013.1 0 21.5 27.0 42.8 112.4 108.7 374.9
22 09:50 14.8 77 9.75 10.8 6 9 1013.1 0 22.0 27.5 43.9 115.5 112.4 387.7
22 09:40 15.5 70 9.25 10.2 4 6 1013.1 0 20.9 26.4 41.5 109.1 104.7 360.9
22 09:20 15 72 9.23 10 6 9 1013.1 0 20.9 26.6 41.7 109.6 105.2 362.3
22 09:10 14.5 72 8.96 9.5 4 6 1013.1 0 20.3 26.3 40.9 107.4 102.2 352.0
22 08:50 13 80 9.07 9.6 6 7 1013.1 0 20.6 26.9 42.1 110.6 105.7 364.1
22 08:30 13.1 81 9.24 9.9 4 6 1013.1 0 21.0 27.2 42.8 112.4 107.9 371.7
22 08:20 12.2 87 9.39 10.2 6 6 1013.1 0 21.4 27.7 43.9 115.4 111.3 383.3
22 08:10 11.7 89 9.31 10 6 7 1013.1 0 21.2 27.7 43.8 115.2 110.9 381.9
22 08:00 10.8 97 9.59 10.3 4 6 1013.1 0 21.9 28.5 45.6 119.8 116.2 400.2
22 07:50 10.2 100 9.52 10.2 6 7 1013.1 0 21.8 28.6 45.6 119.9 116.1 399.9
22 07:40 9.9 100 9.34 9.9 4 6 1013.1 0 21.4 28.3 45.0 118.3 114.0 392.4
22 07:30 9.8 100 9.28 9.8 6 6 1013.1 0 21.3 28.3 44.8 117.7 113.2 389.9
22 07:20 9.8 99 9.19 9.7 6 7 1013.1 0 21.1 28.1 44.4 116.7 112.0 385.4
22 07:10 10.1 99 9.36 9.9 7 7 1013.1 0 21.4 28.3 45.0 118.2 113.9 392.4
22 07:00 9.8 100 9.28 9.8 6 7 1013.1 0 21.3 28.3 44.8 117.7 113.2 389.9
22 06:50 9 100 8.82 9 6 6 1013.1 0 20.3 27.7 43.2 113.6 107.8 370.9
22 06:40 8.5 100 8.54 8.5 6 6 1013.1 0 19.7 27.4 42.3 111.1 104.6 359.3
22 06:20 7.8 100 8.16 7.8 6 6 1013.1 0 18.9 26.9 41.0 107.7 100.1 343.7
22 06:10 7.8 100 8.16 7.8 6 7 1013.1 0 18.9 26.9 41.0 107.7 100.1 343.7
22 06:00 7.7 100 8.11 7.7 6 7 1013.1 0 18.8 26.9 40.9 107.3 99.5 341.7
22 05:50 7.6 100 8.06 7.6 7 7 1013.1 0 18.7 26.8 40.7 106.8 99.0 339.6
22 05:30 7.6 100 8.06 7.6 7 7 1013.1 0 18.7 26.8 40.7 106.8 99.0 339.6
22 05:10 7.6 100 8.06 7.6 7 7 1013.1 0 18.7 26.8 40.7 106.8 99.0 339.6
22 05:00 7.7 100 8.11 7.7 7 9 1013.1 0 18.8 26.9 40.9 107.3 99.5 341.7
22 04:40 7.7 100 8.11 7.7 7 9 1013.1 0 18.8 26.9 40.9 107.3 99.5 341.7
22 04:20 7.7 100 8.11 7.7 6 6 1013.1 0 18.8 26.9 40.9 107.3 99.5 341.7
22 04:10 7.7 100 8.11 7.7 2 4 1013.1 0 18.8 26.9 40.9 107.3 99.5 341.7
22 04:00 7.8 100 8.16 7.8 2 4 1013.1 0 18.9 26.9 41.0 107.7 100.1 343.7
22 03:50 8 100 8.27 8 6 7 1013.1 0 19.2 27.1 41.4 108.7 101.4 348.2
22 03:40 8.2 100 8.38 8.2 7 7 1013.1 0 19.4 27.2 41.8 109.7 102.7 352.8
22 03:20 8.6 100 8.6 8.6 7 7 1013.1 0 19.8 27.5 42.5 111.6 105.3 361.8
22 03:10 8.6 100 8.6 8.6 7 7 1013.1 0 19.8 27.5 42.5 111.6 105.3 361.8
22 02:50 8.5 100 8.54 8.6 6 7 1013.1 0 19.7 27.4 42.3 111.1 104.6 359.3
22 02:40 8.7 100 8.65 8.7 6 7 1013.1 0 19.9 27.5 42.7 112.1 105.8 363.8
22 02:20 8.8 100 8.71 8.8 6 7 1013.1 0 20.1 27.6 42.9 112.6 106.6 366.4
22 02:10 8.6 100 8.6 8.6 6 6 1013.1 0 19.8 27.5 42.5 111.6 105.3 361.8
22 01:50 8.3 100 8.43 8.3 7 7 1013.1 0 19.5 27.3 41.9 110.1 103.3 354.8
22 01:40 8.4 100 8.49 8.5 6 7 1013.1 0 19.6 27.3 42.1 110.7 104.0 357.3
22 01:20 9.1 100 8.88 9.1 6 6 1013.1 0 20.4 27.8 43.4 114.1 108.6 373.4
22 01:10 9.1 100 8.88 9.1 6 6 1013.1 0 20.4 27.8 43.4 114.1 108.6 373.4
22 00:50 9.1 100 8.88 9.1 7 7 1013.1 0 20.4 27.8 43.4 114.1 108.6 373.4
22 00:40 9.2 100 8.93 9.2 6 7 1013.1 0 20.5 27.8 43.6 114.6 109.1 375.4
22 00:30 9.5 100 9.1 9.5 6 6 1013.1 0 20.9 28.0 44.2 116.1 111.1 382.4
22 00:20 9.6 100 9.16 9.6 6 7 1013.1 0 21.0 28.1 44.4 116.6 111.8 384.9
22 00:10 9.7 100 9.22 9.7 6 6 1013.1 0 21.1 28.2 44.6 117.2 112.5 387.4
21 23:50 10 100 9.4 10 6 7 1013.1 0 21.5 28.4 45.2 118.8 114.7 394.9
21 23:40 10 100 9.4 10 6 7 1013.1 0 21.5 28.4 45.2 118.8 114.7 394.9
21 23:20 10.1 100 9.46 10.2 7 9 1013.1 0 21.6 28.5 45.4 119.4 115.4 397.4
21 23:10 10.3 100 9.58 10.3 7 7 1013.1 0 21.9 28.6 45.8 120.4 116.8 402.4
21 22:50 10.4 100 9.64 10.4 7 7 1013.1 0 22.0 28.7 46.0 121.0 117.5 404.8
21 22:40 10.4 100 9.64 10.4 7 9 1013.1 0 22.0 28.7 46.0 121.0 117.5 404.8
21 22:20 10.6 100 9.76 10.6 9 11 1013.1 0 22.3 28.8 46.4 122.1 118.9 409.8
21 22:10 10.7 100 9.82 10.7 7 9 1013.1 0 22.4 28.9 46.6 122.6 119.6 412.3
21 21:50 10.9 100 9.95 10.9 7 9 1013.1 0 22.6 29.1 47.1 123.8 121.2 417.8
21 21:40 11 100 10.01 11 7 7 1013.1 0 22.8 29.1 47.3 124.4 121.9 420.3
21 21:20 11.2 98 9.94 10.9 7 9 1013.1 0 22.6 29.0 46.8 123.2 120.6 415.6
21 21:10 11.3 98 10 11 6 7 1013.1 0 22.7 29.0 47.0 123.8 121.3 418.1
21 20:50 11.5 96 9.92 10.9 7 9 1013.1 0 22.5 28.8 46.6 122.5 119.8 413.0
21 20:40 11.7 94 9.83 10.8 7 7 1013.1 0 22.3 28.6 46.1 121.2 118.2 407.5
21 20:30 11.8 92 9.68 10.6 7 7 1013.1 0 22.0 28.3 45.4 119.3 115.9 399.5
21 20:20 11.9 90 9.53 10.4 7 9 1013.1 0 21.7 28.0 44.7 117.4 113.7 391.6
21 20:10 12.1 89 9.55 10.4 7 9 1013.1 0 21.7 28.0 44.6 117.3 113.6 391.6
21 19:50 12.5 91 10.01 11.1 7 9 1013.1 0 22.7 28.7 46.4 122.0 119.5 412.1
21 19:40 12.7 90 10.02 11.1 7 9 1013.1 0 22.7 28.6 46.3 121.8 119.3 411.6
21 19:30 13.1 87 9.93 11 7 9 1013.1 0 22.5 28.3 45.7 120.1 117.5 405.0
21 19:10 13.8 79 9.41 10.3 7 9 1013.1 0 21.3 27.2 43.1 113.2 109.2 376.4
21 18:50 14.8 78 9.88 11.1 6 9 1013.1 0 22.3 27.7 44.5 117.0 114.2 393.9
21 18:40 15.3 76 9.92 11.1 6 7 1013.1 0 22.3 27.6 44.4 116.7 114.0 393.3
21 18:20 15.7 76 10.17 11.5 7 11 1013.1 0 22.8 27.9 45.2 118.8 116.8 403.1
21 18:10 17 70 10.13 11.5 7 9 1013.1 0 22.7 27.4 44.3 116.4 114.3 394.6
21 17:50 16.8 68 9.72 10.9 7 9 1013.1 0 21.8 26.8 42.7 112.3 109.2 376.5
21 17:40 17 69 9.98 11.3 7 9 1013.1 0 22.4 27.2 43.7 114.8 112.3 387.6
21 17:30 17.7 63 9.5 10.6 6 7 1013.1 0 21.3 26.2 41.4 108.7 105.0 362.3
21 17:20 17.7 64 9.66 10.8 6 7 1013.1 0 21.7 26.4 42.0 110.4 107.1 369.5
21 17:10 18.5 65 10.28 11.8 6 7 1013.1 0 22.9 27.2 44.0 115.8 114.1 394.0
21 16:50 17.7 68 10.26 11.7 6 7 1013.1 0 22.9 27.4 44.4 116.8 115.0 397.1
21 16:40 18.1 66 10.2 11.6 7 9 1013.1 0 22.8 27.2 43.9 115.6 113.6 392.3
21 16:20 17.9 64 9.77 11 7 9 1013.1 0 21.9 26.6 42.3 111.3 108.3 373.6
21 16:10 18.1 66 10.2 11.6 7 11 1013.1 0 22.8 27.2 43.9 115.6 113.6 392.3
21 16:00 18.6 63 10.03 11.6 6 9 1013.1 0 22.4 26.8 43.0 113.0 110.7 382.1
21 15:50 18.9 61 9.88 11.3 6 7 1013.1 0 22.1 26.4 42.2 111.0 108.3 373.8
21 15:30 18.8 63 10.15 11.7 6 7 1013.1 0 22.6 26.9 43.4 114.0 111.9 386.5
21 15:20 18 68 10.44 12 6 7 1013.1 0 23.3 27.6 45.0 118.3 116.9 403.9
21 15:10 18.2 66 10.26 11.8 6 7 1013.1 0 22.9 27.3 44.1 116.1 114.3 394.6
21 14:50 17.3 67 9.87 11.2 7 9 1013.1 0 22.1 26.9 43.1 113.2 110.4 381.0
21 14:30 16.7 72 10.23 11.6 7 9 1013.1 0 22.9 27.7 44.8 118.0 116.1 400.8
21 14:20 17.5 70 10.44 12.1 7 9 1013.1 0 23.3 27.8 45.2 119.0 117.7 406.5

Last Refresh: 22-Jan-2022 12:43:39

Bureau of Meteorology